sensor_id;sensor_type;location;lat;lon;timestamp;P1;durP1;ratioP1;P2;durP2;ratioP2
40669;SDS011;26355;45.528;9.234;2022-11-15T00:00:47;29.07;;;18.23;;
40669;SDS011;26355;45.528;9.234;2022-11-15T00:03:14;29.27;;;18.23;;
40669;SDS011;26355;45.528;9.234;2022-11-15T00:05:40;29.38;;;17.58;;
40669;SDS011;26355;45.528;9.234;2022-11-15T00:08:07;30.73;;;18.40;;
40669;SDS011;26355;45.528;9.234;2022-11-15T00:10:33;28.35;;;17.15;;
40669;SDS011;26355;45.528;9.234;2022-11-15T00:12:59;28.17;;;17.45;;
40669;SDS011;26355;45.528;9.234;2022-11-15T00:15:24;28.98;;;17.70;;
40669;SDS011;26355;45.528;9.234;2022-11-15T00:17:50;29.17;;;16.58;;
40669;SDS011;26355;45.528;9.234;2022-11-15T00:20:19;29.50;;;17.23;;
40669;SDS011;26355;45.528;9.234;2022-11-15T00:22:45;31.23;;;18.73;;
40669;SDS011;26355;45.528;9.234;2022-11-15T00:25:10;27.95;;;17.98;;
40669;SDS011;26355;45.528;9.234;2022-11-15T00:27:36;27.67;;;16.70;;
40669;SDS011;26355;45.528;9.234;2022-11-15T00:30:01;28.35;;;16.75;;
40669;SDS011;26355;45.528;9.234;2022-11-15T00:32:30;27.13;;;17.92;;
40669;SDS011;26355;45.528;9.234;2022-11-15T00:34:57;29.25;;;17.67;;
40669;SDS011;26355;45.528;9.234;2022-11-15T00:37:22;27.50;;;16.10;;
40669;SDS011;26355;45.528;9.234;2022-11-15T00:39:48;28.35;;;17.15;;
40669;SDS011;26355;45.528;9.234;2022-11-15T00:42:14;26.45;;;16.23;;
40669;SDS011;26355;45.528;9.234;2022-11-15T00:44:39;27.50;;;17.15;;
40669;SDS011;26355;45.528;9.234;2022-11-15T00:47:05;29.13;;;17.17;;
40669;SDS011;26355;45.528;9.234;2022-11-15T00:49:31;27.98;;;17.38;;
40669;SDS011;26355;45.528;9.234;2022-11-15T00:51:56;29.02;;;17.17;;
40669;SDS011;26355;45.528;9.234;2022-11-15T00:54:22;28.17;;;17.08;;
40669;SDS011;26355;45.528;9.234;2022-11-15T00:56:48;28.33;;;17.90;;
40669;SDS011;26355;45.528;9.234;2022-11-15T00:59:13;27.38;;;17.20;;
40669;SDS011;26355;45.528;9.234;2022-11-15T01:01:39;27.65;;;18.55;;
40669;SDS011;26355;45.528;9.234;2022-11-15T01:04:04;30.70;;;17.95;;
40669;SDS011;26355;45.528;9.234;2022-11-15T01:06:31;29.88;;;17.88;;
40669;SDS011;26355;45.528;9.234;2022-11-15T01:08:56;28.55;;;17.85;;
40669;SDS011;26355;45.528;9.234;2022-11-15T01:11:22;28.55;;;17.80;;
40669;SDS011;26355;45.528;9.234;2022-11-15T01:13:48;29.80;;;17.67;;
40669;SDS011;26355;45.528;9.234;2022-11-15T01:16:14;27.77;;;17.73;;
40669;SDS011;26355;45.528;9.234;2022-11-15T01:18:42;28.23;;;17.30;;
40669;SDS011;26355;45.528;9.234;2022-11-15T01:21:09;27.05;;;17.88;;
40669;SDS011;26355;45.528;9.234;2022-11-15T01:23:38;27.30;;;17.13;;
40669;SDS011;26355;45.528;9.234;2022-11-15T01:26:04;28.65;;;17.20;;
40669;SDS011;26355;45.528;9.234;2022-11-15T01:28:32;30.15;;;18.25;;
40669;SDS011;26355;45.528;9.234;2022-11-15T01:31:00;27.98;;;17.65;;
40669;SDS011;26355;45.528;9.234;2022-11-15T01:33:27;27.88;;;17.10;;
40669;SDS011;26355;45.528;9.234;2022-11-15T01:35:53;29.55;;;16.98;;
40669;SDS011;26355;45.528;9.234;2022-11-15T01:38:19;29.35;;;17.25;;
40669;SDS011;26355;45.528;9.234;2022-11-15T01:40:46;28.33;;;17.05;;
40669;SDS011;26355;45.528;9.234;2022-11-15T01:43:46;28.25;;;16.48;;
40669;SDS011;26355;45.528;9.234;2022-11-15T01:46:06;27.10;;;16.42;;
40669;SDS011;26355;45.528;9.234;2022-11-15T01:48:38;32.13;;;17.95;;
40669;SDS011;26355;45.528;9.234;2022-11-15T01:51:06;28.20;;;16.80;;
40669;SDS011;26355;45.528;9.234;2022-11-15T01:53:35;29.00;;;16.83;;
40669;SDS011;26355;45.528;9.234;2022-11-15T01:56:06;28.35;;;16.70;;
40669;SDS011;26355;45.528;9.234;2022-11-15T01:58:35;29.67;;;16.90;;
40669;SDS011;26355;45.528;9.234;2022-11-15T02:01:01;29.73;;;17.48;;
40669;SDS011;26355;45.528;9.234;2022-11-15T02:03:31;28.80;;;17.77;;
40669;SDS011;26355;45.528;9.234;2022-11-15T02:06:05;28.45;;;16.38;;
40669;SDS011;26355;45.528;9.234;2022-11-15T02:08:30;27.38;;;16.75;;
40669;SDS011;26355;45.528;9.234;2022-11-15T02:10:56;28.08;;;16.75;;
40669;SDS011;26355;45.528;9.234;2022-11-15T02:13:22;27.40;;;16.15;;
40669;SDS011;26355;45.528;9.234;2022-11-15T02:21:17;28.55;;;17.02;;
40669;SDS011;26355;45.528;9.234;2022-11-15T02:27:05;27.90;;;15.85;;
40669;SDS011;26355;45.528;9.234;2022-11-15T02:32:44;28.37;;;16.03;;
40669;SDS011;26355;45.528;9.234;2022-11-15T02:35:17;28.73;;;16.63;;
40669;SDS011;26355;45.528;9.234;2022-11-15T02:38:08;28.20;;;16.83;;
40669;SDS011;26355;45.528;9.234;2022-11-15T02:43:16;25.95;;;15.23;;
40669;SDS011;26355;45.528;9.234;2022-11-15T02:46:17;28.83;;;16.83;;
40669;SDS011;26355;45.528;9.234;2022-11-15T02:49:12;27.38;;;16.25;;
40669;SDS011;26355;45.528;9.234;2022-11-15T02:51:39;26.65;;;16.92;;
40669;SDS011;26355;45.528;9.234;2022-11-15T02:54:10;29.50;;;16.67;;
40669;SDS011;26355;45.528;9.234;2022-11-15T02:56:38;26.60;;;17.23;;
40669;SDS011;26355;45.528;9.234;2022-11-15T03:02:00;27.58;;;15.30;;
40669;SDS011;26355;45.528;9.234;2022-11-15T03:07:35;25.83;;;15.25;;
40669;SDS011;26355;45.528;9.234;2022-11-15T03:10:05;26.65;;;15.85;;
40669;SDS011;26355;45.528;9.234;2022-11-15T03:12:41;27.33;;;16.92;;
40669;SDS011;26355;45.528;9.234;2022-11-15T03:15:21;28.00;;;17.23;;
40669;SDS011;26355;45.528;9.234;2022-11-15T03:17:54;27.10;;;15.95;;
40669;SDS011;26355;45.528;9.234;2022-11-15T03:20:26;26.58;;;16.20;;
40669;SDS011;26355;45.528;9.234;2022-11-15T03:22:53;25.85;;;16.17;;
40669;SDS011;26355;45.528;9.234;2022-11-15T03:25:24;28.70;;;16.63;;
40669;SDS011;26355;45.528;9.234;2022-11-15T03:27:53;25.67;;;16.60;;
40669;SDS011;26355;45.528;9.234;2022-11-15T03:30:22;26.02;;;15.60;;
40669;SDS011;26355;45.528;9.234;2022-11-15T03:32:55;27.23;;;16.05;;
40669;SDS011;26355;45.528;9.234;2022-11-15T03:35:26;26.23;;;15.88;;
40669;SDS011;26355;45.528;9.234;2022-11-15T03:43:30;27.60;;;16.48;;
40669;SDS011;26355;45.528;9.234;2022-11-15T03:46:26;27.35;;;16.63;;
40669;SDS011;26355;45.528;9.234;2022-11-15T03:49:04;27.08;;;15.27;;
40669;SDS011;26355;45.528;9.234;2022-11-15T03:51:37;27.45;;;15.82;;
40669;SDS011;26355;45.528;9.234;2022-11-15T03:54:04;29.45;;;17.05;;
40669;SDS011;26355;45.528;9.234;2022-11-15T03:56:34;26.95;;;16.05;;
40669;SDS011;26355;45.528;9.234;2022-11-15T03:58:59;26.35;;;15.27;;
40669;SDS011;26355;45.528;9.234;2022-11-15T04:01:25;25.73;;;16.17;;
40669;SDS011;26355;45.528;9.234;2022-11-15T04:03:51;27.58;;;16.67;;
40669;SDS011;26355;45.528;9.234;2022-11-15T04:06:16;27.70;;;16.23;;
40669;SDS011;26355;45.528;9.234;2022-11-15T04:08:42;25.63;;;16.15;;
40669;SDS011;26355;45.528;9.234;2022-11-15T04:11:08;27.35;;;15.98;;
40669;SDS011;26355;45.528;9.234;2022-11-15T04:13:33;27.30;;;17.05;;
40669;SDS011;26355;45.528;9.234;2022-11-15T04:15:59;26.50;;;16.55;;
40669;SDS011;26355;45.528;9.234;2022-11-15T04:18:25;29.70;;;17.35;;
40669;SDS011;26355;45.528;9.234;2022-11-15T04:20:50;28.30;;;16.73;;
40669;SDS011;26355;45.528;9.234;2022-11-15T04:23:35;28.15;;;15.90;;
40669;SDS011;26355;45.528;9.234;2022-11-15T04:26:20;27.15;;;16.48;;
40669;SDS011;26355;45.528;9.234;2022-11-15T04:28:47;25.52;;;15.93;;
40669;SDS011;26355;45.528;9.234;2022-11-15T04:31:31;27.42;;;15.90;;
40669;SDS011;26355;45.528;9.234;2022-11-15T04:33:57;27.50;;;16.50;;
40669;SDS011;26355;45.528;9.234;2022-11-15T04:36:23;26.90;;;16.65;;
40669;SDS011;26355;45.528;9.234;2022-11-15T04:39:07;26.13;;;16.85;;
40669;SDS011;26355;45.528;9.234;2022-11-15T04:41:33;26.73;;;16.45;;
40669;SDS011;26355;45.528;9.234;2022-11-15T04:43:59;25.90;;;15.23;;
40669;SDS011;26355;45.528;9.234;2022-11-15T04:46:24;26.83;;;15.82;;
40669;SDS011;26355;45.528;9.234;2022-11-15T04:48:51;27.42;;;15.18;;
40669;SDS011;26355;45.528;9.234;2022-11-15T04:51:17;26.15;;;15.45;;
40669;SDS011;26355;45.528;9.234;2022-11-15T04:53:43;26.30;;;15.80;;
40669;SDS011;26355;45.528;9.234;2022-11-15T04:56:09;26.45;;;15.40;;
40669;SDS011;26355;45.528;9.234;2022-11-15T04:58:35;26.00;;;15.38;;
40669;SDS011;26355;45.528;9.234;2022-11-15T05:01:11;25.55;;;15.10;;
40669;SDS011;26355;45.528;9.234;2022-11-15T05:03:39;26.38;;;14.63;;
40669;SDS011;26355;45.528;9.234;2022-11-15T05:06:26;25.08;;;15.15;;
40669;SDS011;26355;45.528;9.234;2022-11-15T05:08:53;26.00;;;14.73;;
40669;SDS011;26355;45.528;9.234;2022-11-15T05:11:19;27.67;;;15.52;;
40669;SDS011;26355;45.528;9.234;2022-11-15T05:13:45;28.10;;;15.98;;
40669;SDS011;26355;45.528;9.234;2022-11-15T05:16:11;27.55;;;15.45;;
40669;SDS011;26355;45.528;9.234;2022-11-15T05:18:37;24.80;;;15.10;;
40669;SDS011;26355;45.528;9.234;2022-11-15T05:21:06;24.88;;;14.88;;
40669;SDS011;26355;45.528;9.234;2022-11-15T05:23:33;27.55;;;15.52;;
40669;SDS011;26355;45.528;9.234;2022-11-15T05:26:02;25.80;;;16.00;;
40669;SDS011;26355;45.528;9.234;2022-11-15T05:28:30;25.27;;;15.98;;
40669;SDS011;26355;45.528;9.234;2022-11-15T05:31:06;25.23;;;14.27;;
40669;SDS011;26355;45.528;9.234;2022-11-15T05:33:33;27.15;;;16.10;;
40669;SDS011;26355;45.528;9.234;2022-11-15T05:36:25;28.23;;;17.60;;
40669;SDS011;26355;45.528;9.234;2022-11-15T05:38:56;26.75;;;15.88;;
40669;SDS011;26355;45.528;9.234;2022-11-15T05:41:25;24.83;;;14.52;;
40669;SDS011;26355;45.528;9.234;2022-11-15T05:43:57;25.27;;;15.50;;
40669;SDS011;26355;45.528;9.234;2022-11-15T05:46:25;26.80;;;15.85;;
40669;SDS011;26355;45.528;9.234;2022-11-15T05:48:51;27.23;;;15.68;;
40669;SDS011;26355;45.528;9.234;2022-11-15T05:53:45;26.42;;;15.65;;
40669;SDS011;26355;45.528;9.234;2022-11-15T05:56:11;27.52;;;16.02;;
40669;SDS011;26355;45.528;9.234;2022-11-15T05:58:38;27.55;;;15.98;;
40669;SDS011;26355;45.528;9.234;2022-11-15T06:01:04;25.27;;;15.60;;
40669;SDS011;26355;45.528;9.234;2022-11-15T06:03:30;27.58;;;16.50;;
40669;SDS011;26355;45.528;9.234;2022-11-15T06:05:56;26.63;;;16.13;;
40669;SDS011;26355;45.528;9.234;2022-11-15T06:08:22;26.50;;;15.80;;
40669;SDS011;26355;45.528;9.234;2022-11-15T06:10:48;28.02;;;16.23;;
40669;SDS011;26355;45.528;9.234;2022-11-15T06:13:14;26.95;;;15.75;;
40669;SDS011;26355;45.528;9.234;2022-11-15T06:15:39;25.77;;;16.33;;
40669;SDS011;26355;45.528;9.234;2022-11-15T06:18:05;28.73;;;16.42;;
40669;SDS011;26355;45.528;9.234;2022-11-15T06:20:31;28.92;;;16.88;;
40669;SDS011;26355;45.528;9.234;2022-11-15T06:22:57;29.10;;;16.50;;
40669;SDS011;26355;45.528;9.234;2022-11-15T06:25:23;27.58;;;16.63;;
40669;SDS011;26355;45.528;9.234;2022-11-15T06:27:52;28.20;;;16.20;;
40669;SDS011;26355;45.528;9.234;2022-11-15T06:30:19;26.70;;;15.50;;
40669;SDS011;26355;45.528;9.234;2022-11-15T06:32:46;29.13;;;16.05;;
40669;SDS011;26355;45.528;9.234;2022-11-15T06:35:11;26.08;;;15.35;;
40669;SDS011;26355;45.528;9.234;2022-11-15T06:37:38;24.88;;;14.95;;
40669;SDS011;26355;45.528;9.234;2022-11-15T06:40:04;27.08;;;15.48;;
40669;SDS011;26355;45.528;9.234;2022-11-15T06:42:31;25.20;;;14.00;;
40669;SDS011;26355;45.528;9.234;2022-11-15T06:44:56;25.30;;;13.70;;
40669;SDS011;26355;45.528;9.234;2022-11-15T06:47:22;25.13;;;13.80;;
40669;SDS011;26355;45.528;9.234;2022-11-15T06:49:48;25.02;;;14.55;;
40669;SDS011;26355;45.528;9.234;2022-11-15T06:52:14;25.45;;;14.88;;
40669;SDS011;26355;45.528;9.234;2022-11-15T06:54:40;24.02;;;14.40;;
40669;SDS011;26355;45.528;9.234;2022-11-15T06:57:06;26.23;;;15.43;;
40669;SDS011;26355;45.528;9.234;2022-11-15T06:59:31;25.42;;;14.25;;
40669;SDS011;26355;45.528;9.234;2022-11-15T07:01:57;26.65;;;14.35;;
40669;SDS011;26355;45.528;9.234;2022-11-15T07:04:23;27.17;;;14.23;;
40669;SDS011;26355;45.528;9.234;2022-11-15T07:06:48;23.88;;;13.50;;
40669;SDS011;26355;45.528;9.234;2022-11-15T07:09:14;23.38;;;13.15;;
40669;SDS011;26355;45.528;9.234;2022-11-15T07:11:40;24.60;;;13.98;;
40669;SDS011;26355;45.528;9.234;2022-11-15T07:14:06;23.33;;;13.07;;
40669;SDS011;26355;45.528;9.234;2022-11-15T07:16:31;25.08;;;13.73;;
40669;SDS011;26355;45.528;9.234;2022-11-15T07:18:57;24.77;;;13.98;;
40669;SDS011;26355;45.528;9.234;2022-11-15T07:21:23;23.60;;;13.95;;
40669;SDS011;26355;45.528;9.234;2022-11-15T07:23:49;22.70;;;12.85;;
40669;SDS011;26355;45.528;9.234;2022-11-15T07:26:14;24.40;;;13.20;;
40669;SDS011;26355;45.528;9.234;2022-11-15T07:28:40;23.25;;;13.52;;
40669;SDS011;26355;45.528;9.234;2022-11-15T07:31:07;23.45;;;12.73;;
40669;SDS011;26355;45.528;9.234;2022-11-15T07:33:33;24.35;;;12.98;;
40669;SDS011;26355;45.528;9.234;2022-11-15T07:36:00;26.00;;;14.07;;
40669;SDS011;26355;45.528;9.234;2022-11-15T07:38:27;25.13;;;14.23;;
40669;SDS011;26355;45.528;9.234;2022-11-15T07:40:57;24.20;;;13.70;;
40669;SDS011;26355;45.528;9.234;2022-11-15T07:43:26;23.40;;;13.15;;
40669;SDS011;26355;45.528;9.234;2022-11-15T07:45:53;24.55;;;14.63;;
40669;SDS011;26355;45.528;9.234;2022-11-15T07:48:19;26.08;;;14.25;;
40669;SDS011;26355;45.528;9.234;2022-11-15T07:50:45;25.35;;;14.27;;
40669;SDS011;26355;45.528;9.234;2022-11-15T07:53:11;26.00;;;15.13;;
40669;SDS011;26355;45.528;9.234;2022-11-15T07:55:37;26.83;;;16.38;;
40669;SDS011;26355;45.528;9.234;2022-11-15T08:00:31;28.75;;;18.05;;
40669;SDS011;26355;45.528;9.234;2022-11-15T08:03:02;36.67;;;22.83;;
40669;SDS011;26355;45.528;9.234;2022-11-15T08:05:28;32.33;;;19.92;;
40669;SDS011;26355;45.528;9.234;2022-11-15T08:07:55;30.00;;;18.67;;
40669;SDS011;26355;45.528;9.234;2022-11-15T08:10:21;29.50;;;17.23;;
40669;SDS011;26355;45.528;9.234;2022-11-15T08:12:47;26.92;;;16.13;;
40669;SDS011;26355;45.528;9.234;2022-11-15T08:15:12;29.65;;;17.48;;
40669;SDS011;26355;45.528;9.234;2022-11-15T08:17:38;26.23;;;16.35;;
40669;SDS011;26355;45.528;9.234;2022-11-15T08:20:04;26.52;;;16.38;;
40669;SDS011;26355;45.528;9.234;2022-11-15T08:22:30;26.42;;;16.38;;
40669;SDS011;26355;45.528;9.234;2022-11-15T08:24:55;27.52;;;17.38;;
40669;SDS011;26355;45.528;9.234;2022-11-15T08:27:21;30.95;;;17.70;;
40669;SDS011;26355;45.528;9.234;2022-11-15T08:29:48;27.48;;;17.67;;
40669;SDS011;26355;45.528;9.234;2022-11-15T08:32:14;28.42;;;17.05;;
40669;SDS011;26355;45.528;9.234;2022-11-15T08:34:40;26.55;;;16.10;;
40669;SDS011;26355;45.528;9.234;2022-11-15T08:37:06;27.85;;;17.45;;
40669;SDS011;26355;45.528;9.234;2022-11-15T08:39:31;29.38;;;17.33;;
40669;SDS011;26355;45.528;9.234;2022-11-15T08:41:57;28.67;;;17.73;;
40669;SDS011;26355;45.528;9.234;2022-11-15T08:44:23;31.10;;;18.08;;
40669;SDS011;26355;45.528;9.234;2022-11-15T08:46:49;28.88;;;17.95;;
40669;SDS011;26355;45.528;9.234;2022-11-15T08:49:15;29.13;;;17.27;;
40669;SDS011;26355;45.528;9.234;2022-11-15T08:51:44;28.52;;;17.88;;
40669;SDS011;26355;45.528;9.234;2022-11-15T08:54:09;30.88;;;19.75;;
40669;SDS011;26355;45.528;9.234;2022-11-15T08:56:35;33.08;;;18.25;;
40669;SDS011;26355;45.528;9.234;2022-11-15T08:59:01;33.35;;;19.55;;
40669;SDS011;26355;45.528;9.234;2022-11-15T09:01:27;33.10;;;20.15;;
40669;SDS011;26355;45.528;9.234;2022-11-15T09:03:52;28.23;;;17.40;;
40669;SDS011;26355;45.528;9.234;2022-11-15T09:06:18;30.25;;;17.77;;
40669;SDS011;26355;45.528;9.234;2022-11-15T09:08:44;32.53;;;18.67;;
40669;SDS011;26355;45.528;9.234;2022-11-15T09:11:10;29.70;;;18.58;;
40669;SDS011;26355;45.528;9.234;2022-11-15T09:13:36;27.77;;;18.20;;
40669;SDS011;26355;45.528;9.234;2022-11-15T09:16:02;28.33;;;17.27;;
40669;SDS011;26355;45.528;9.234;2022-11-15T09:18:29;23.58;;;14.00;;
40669;SDS011;26355;45.528;9.234;2022-11-15T09:20:55;26.58;;;16.30;;
40669;SDS011;26355;45.528;9.234;2022-11-15T09:23:22;27.77;;;16.40;;
40669;SDS011;26355;45.528;9.234;2022-11-15T09:25:48;27.17;;;15.88;;
40669;SDS011;26355;45.528;9.234;2022-11-15T09:28:14;26.85;;;16.13;;
40669;SDS011;26355;45.528;9.234;2022-11-15T09:30:40;27.60;;;16.70;;
40669;SDS011;26355;45.528;9.234;2022-11-15T09:33:06;28.10;;;17.55;;
40669;SDS011;26355;45.528;9.234;2022-11-15T09:35:33;26.85;;;15.73;;
40669;SDS011;26355;45.528;9.234;2022-11-15T09:37:59;29.30;;;17.35;;
40669;SDS011;26355;45.528;9.234;2022-11-15T09:40:25;27.30;;;15.77;;
40669;SDS011;26355;45.528;9.234;2022-11-15T09:45:28;27.83;;;16.05;;
40669;SDS011;26355;45.528;9.234;2022-11-15T09:50:55;26.98;;;15.88;;
40669;SDS011;26355;45.528;9.234;2022-11-15T09:53:25;27.98;;;16.23;;
40669;SDS011;26355;45.528;9.234;2022-11-15T09:56:03;25.15;;;14.55;;
40669;SDS011;26355;45.528;9.234;2022-11-15T09:58:43;22.92;;;13.52;;
40669;SDS011;26355;45.528;9.234;2022-11-15T10:01:17;22.08;;;13.05;;
40669;SDS011;26355;45.528;9.234;2022-11-15T10:04:02;26.42;;;14.85;;
40669;SDS011;26355;45.528;9.234;2022-11-15T10:06:28;28.08;;;16.23;;
40669;SDS011;26355;45.528;9.234;2022-11-15T10:08:59;27.75;;;15.90;;
40669;SDS011;26355;45.528;9.234;2022-11-15T10:11:54;25.95;;;16.30;;
40669;SDS011;26355;45.528;9.234;2022-11-15T10:14:22;27.23;;;16.48;;
40669;SDS011;26355;45.528;9.234;2022-11-15T10:24:48;26.38;;;16.30;;
40669;SDS011;26355;45.528;9.234;2022-11-15T10:27:18;28.48;;;17.02;;
40669;SDS011;26355;45.528;9.234;2022-11-15T10:29:48;27.65;;;17.10;;
40669;SDS011;26355;45.528;9.234;2022-11-15T10:32:16;26.65;;;16.27;;
40669;SDS011;26355;45.528;9.234;2022-11-15T10:34:43;32.63;;;16.98;;
40669;SDS011;26355;45.528;9.234;2022-11-15T10:37:10;29.63;;;17.23;;
40669;SDS011;26355;45.528;9.234;2022-11-15T10:39:35;28.90;;;17.55;;
40669;SDS011;26355;45.528;9.234;2022-11-15T10:44:52;28.98;;;17.55;;
40669;SDS011;26355;45.528;9.234;2022-11-15T10:47:23;26.95;;;17.27;;
40669;SDS011;26355;45.528;9.234;2022-11-15T10:49:53;32.55;;;17.58;;
40669;SDS011;26355;45.528;9.234;2022-11-15T10:52:26;28.10;;;16.10;;
40669;SDS011;26355;45.528;9.234;2022-11-15T10:54:55;27.50;;;17.63;;
40669;SDS011;26355;45.528;9.234;2022-11-15T10:57:26;28.98;;;17.73;;
40669;SDS011;26355;45.528;9.234;2022-11-15T11:00:06;29.77;;;18.80;;
40669;SDS011;26355;45.528;9.234;2022-11-15T11:05:05;29.17;;;16.80;;
40669;SDS011;26355;45.528;9.234;2022-11-15T11:08:02;27.58;;;16.88;;
40669;SDS011;26355;45.528;9.234;2022-11-15T11:10:30;26.63;;;17.05;;
40669;SDS011;26355;45.528;9.234;2022-11-15T11:13:40;29.45;;;17.90;;
40669;SDS011;26355;45.528;9.234;2022-11-15T11:16:41;28.95;;;17.38;;
40669;SDS011;26355;45.528;9.234;2022-11-15T11:37:59;33.97;;;19.35;;
40669;SDS011;26355;45.528;9.234;2022-11-15T11:40:43;32.95;;;19.67;;
40669;SDS011;26355;45.528;9.234;2022-11-15T11:48:42;30.33;;;18.33;;
40669;SDS011;26355;45.528;9.234;2022-11-15T11:53:47;32.03;;;19.25;;
40669;SDS011;26355;45.528;9.234;2022-11-15T11:56:28;30.67;;;17.55;;
40669;SDS011;26355;45.528;9.234;2022-11-15T11:59:00;29.83;;;19.75;;
40669;SDS011;26355;45.528;9.234;2022-11-15T12:01:48;27.67;;;16.90;;
40669;SDS011;26355;45.528;9.234;2022-11-15T12:07:10;25.55;;;14.70;;
40669;SDS011;26355;45.528;9.234;2022-11-15T12:12:39;25.17;;;14.77;;
40669;SDS011;26355;45.528;9.234;2022-11-15T12:15:13;24.70;;;14.70;;
40669;SDS011;26355;45.528;9.234;2022-11-15T12:17:43;25.05;;;14.32;;
40669;SDS011;26355;45.528;9.234;2022-11-15T12:20:24;25.40;;;14.98;;
40669;SDS011;26355;45.528;9.234;2022-11-15T12:22:56;25.83;;;14.82;;
40669;SDS011;26355;45.528;9.234;2022-11-15T12:25:31;25.90;;;14.63;;
40669;SDS011;26355;45.528;9.234;2022-11-15T12:28:15;28.23;;;17.13;;
40669;SDS011;26355;45.528;9.234;2022-11-15T12:31:01;26.02;;;15.00;;
40669;SDS011;26355;45.528;9.234;2022-11-15T12:33:41;25.73;;;15.82;;
40669;SDS011;26355;45.528;9.234;2022-11-15T12:38:59;25.02;;;14.95;;
40669;SDS011;26355;45.528;9.234;2022-11-15T12:41:26;30.23;;;16.58;;
40669;SDS011;26355;45.528;9.234;2022-11-15T12:44:03;28.05;;;16.10;;
40669;SDS011;26355;45.528;9.234;2022-11-15T13:02:33;28.15;;;17.48;;
40669;SDS011;26355;45.528;9.234;2022-11-15T13:07:56;30.50;;;18.20;;
40669;SDS011;26355;45.528;9.234;2022-11-15T13:22:47;28.77;;;17.38;;
40669;SDS011;26355;45.528;9.234;2022-11-15T13:30:48;26.70;;;14.88;;
40669;SDS011;26355;45.528;9.234;2022-11-15T13:33:20;29.42;;;16.23;;
40669;SDS011;26355;45.528;9.234;2022-11-15T13:35:49;28.08;;;17.20;;
40669;SDS011;26355;45.528;9.234;2022-11-15T13:38:27;26.90;;;15.15;;
40669;SDS011;26355;45.528;9.234;2022-11-15T13:40:55;27.88;;;16.08;;
40669;SDS011;26355;45.528;9.234;2022-11-15T13:48:56;26.52;;;14.80;;
40669;SDS011;26355;45.528;9.234;2022-11-15T13:56:59;25.73;;;15.40;;
40669;SDS011;26355;45.528;9.234;2022-11-15T14:01:56;28.83;;;16.05;;
40669;SDS011;26355;45.528;9.234;2022-11-15T14:04:25;28.33;;;15.43;;
40669;SDS011;26355;45.528;9.234;2022-11-15T14:06:57;29.00;;;15.98;;
40669;SDS011;26355;45.528;9.234;2022-11-15T14:09:34;25.08;;;14.27;;
40669;SDS011;26355;45.528;9.234;2022-11-15T14:12:01;25.30;;;13.73;;
40669;SDS011;26355;45.528;9.234;2022-11-15T14:14:46;26.58;;;14.40;;
40669;SDS011;26355;45.528;9.234;2022-11-15T14:17:18;24.23;;;12.88;;
40669;SDS011;26355;45.528;9.234;2022-11-15T14:19:45;22.95;;;12.43;;
40669;SDS011;26355;45.528;9.234;2022-11-15T14:22:15;24.85;;;12.55;;
40669;SDS011;26355;45.528;9.234;2022-11-15T14:24:44;22.35;;;12.02;;
40669;SDS011;26355;45.528;9.234;2022-11-15T14:27:22;22.85;;;12.07;;
40669;SDS011;26355;45.528;9.234;2022-11-15T14:29:52;23.35;;;12.48;;
40669;SDS011;26355;45.528;9.234;2022-11-15T14:32:22;23.63;;;12.63;;
40669;SDS011;26355;45.528;9.234;2022-11-15T14:34:49;23.30;;;13.02;;
40669;SDS011;26355;45.528;9.234;2022-11-15T14:37:23;22.42;;;11.77;;
40669;SDS011;26355;45.528;9.234;2022-11-15T14:39:51;23.40;;;11.85;;
40669;SDS011;26355;45.528;9.234;2022-11-15T14:42:18;23.45;;;11.35;;
40669;SDS011;26355;45.528;9.234;2022-11-15T14:44:44;21.73;;;12.52;;
40669;SDS011;26355;45.528;9.234;2022-11-15T14:47:10;22.27;;;12.70;;
40669;SDS011;26355;45.528;9.234;2022-11-15T14:49:36;22.45;;;11.13;;
40669;SDS011;26355;45.528;9.234;2022-11-15T14:52:02;21.73;;;11.23;;
40669;SDS011;26355;45.528;9.234;2022-11-15T14:54:29;21.15;;;11.15;;
40669;SDS011;26355;45.528;9.234;2022-11-15T14:56:54;21.02;;;10.95;;
40669;SDS011;26355;45.528;9.234;2022-11-15T14:59:20;21.35;;;11.05;;
40669;SDS011;26355;45.528;9.234;2022-11-15T15:01:46;20.58;;;10.48;;
40669;SDS011;26355;45.528;9.234;2022-11-15T15:04:11;24.70;;;11.98;;
40669;SDS011;26355;45.528;9.234;2022-11-15T15:06:37;22.08;;;11.45;;
40669;SDS011;26355;45.528;9.234;2022-11-15T15:09:03;21.23;;;10.50;;
40669;SDS011;26355;45.528;9.234;2022-11-15T15:11:30;21.67;;;11.30;;
40669;SDS011;26355;45.528;9.234;2022-11-15T15:13:57;21.77;;;10.50;;
40669;SDS011;26355;45.528;9.234;2022-11-15T15:16:25;21.92;;;11.52;;
40669;SDS011;26355;45.528;9.234;2022-11-15T15:18:52;21.73;;;11.20;;
40669;SDS011;26355;45.528;9.234;2022-11-15T15:21:24;21.05;;;11.07;;
40669;SDS011;26355;45.528;9.234;2022-11-15T15:23:53;20.15;;;10.68;;
40669;SDS011;26355;45.528;9.234;2022-11-15T15:26:19;21.48;;;11.10;;
40669;SDS011;26355;45.528;9.234;2022-11-15T15:28:45;21.30;;;10.85;;
40669;SDS011;26355;45.528;9.234;2022-11-15T15:31:13;22.63;;;10.98;;
40669;SDS011;26355;45.528;9.234;2022-11-15T15:33:39;24.02;;;11.77;;
40669;SDS011;26355;45.528;9.234;2022-11-15T15:36:08;20.02;;;9.88;;
40669;SDS011;26355;45.528;9.234;2022-11-15T15:38:38;21.77;;;11.55;;
40669;SDS011;26355;45.528;9.234;2022-11-15T15:41:10;20.17;;;10.68;;
40669;SDS011;26355;45.528;9.234;2022-11-15T15:43:37;21.10;;;11.13;;
40669;SDS011;26355;45.528;9.234;2022-11-15T15:46:04;23.10;;;11.82;;
40669;SDS011;26355;45.528;9.234;2022-11-15T15:48:33;22.52;;;11.23;;
40669;SDS011;26355;45.528;9.234;2022-11-15T15:51:02;21.27;;;11.27;;
40669;SDS011;26355;45.528;9.234;2022-11-15T15:53:27;22.45;;;11.55;;
40669;SDS011;26355;45.528;9.234;2022-11-15T15:55:53;19.40;;;10.05;;
40669;SDS011;26355;45.528;9.234;2022-11-15T15:58:20;23.15;;;11.52;;
40669;SDS011;26355;45.528;9.234;2022-11-15T16:00:46;21.73;;;10.75;;
40669;SDS011;26355;45.528;9.234;2022-11-15T16:03:12;21.92;;;10.88;;
40669;SDS011;26355;45.528;9.234;2022-11-15T16:05:39;21.30;;;11.82;;
40669;SDS011;26355;45.528;9.234;2022-11-15T16:08:05;21.98;;;11.63;;
40669;SDS011;26355;45.528;9.234;2022-11-15T16:10:32;21.00;;;10.80;;
40669;SDS011;26355;45.528;9.234;2022-11-15T16:12:59;20.13;;;10.27;;
40669;SDS011;26355;45.528;9.234;2022-11-15T16:15:27;23.20;;;11.73;;
40669;SDS011;26355;45.528;9.234;2022-11-15T16:17:59;24.27;;;12.07;;
40669;SDS011;26355;45.528;9.234;2022-11-15T16:20:31;22.08;;;10.80;;
40669;SDS011;26355;45.528;9.234;2022-11-15T16:22:58;21.42;;;10.73;;
40669;SDS011;26355;45.528;9.234;2022-11-15T16:25:25;20.80;;;10.27;;
40669;SDS011;26355;45.528;9.234;2022-11-15T16:27:50;21.75;;;9.95;;
40669;SDS011;26355;45.528;9.234;2022-11-15T16:30:19;22.88;;;10.50;;
40669;SDS011;26355;45.528;9.234;2022-11-15T16:32:46;20.50;;;9.73;;
40669;SDS011;26355;45.528;9.234;2022-11-15T16:35:13;21.42;;;10.80;;
40669;SDS011;26355;45.528;9.234;2022-11-15T16:42:52;22.77;;;12.30;;
40669;SDS011;26355;45.528;9.234;2022-11-15T16:45:20;24.80;;;12.85;;
40669;SDS011;26355;45.528;9.234;2022-11-15T16:47:46;24.65;;;13.38;;
40669;SDS011;26355;45.528;9.234;2022-11-15T16:50:19;24.60;;;13.63;;
40669;SDS011;26355;45.528;9.234;2022-11-15T16:52:51;23.83;;;13.20;;